Kawkawlin, Michigan
Current Conditions -  °F | °C
As of 11:53 AM on Tuesday 27 Jan 2015 (Local Time) from KMBS Reporting Station
Broken Clouds Broken Clouds  
Wind Chill: 11°   Ceiling: 2000
Heat Index: 24°   Visibility: 10mi
Dew Point: 15°   Wind: 15mph
Humidity: 69%   Direction: 30°NNE
Pressure: 30.17"   Gusts: NA
Location:  43.65°N, 83.94°W
Report Text: KMBS 271653Z 03013KT 10SM BKN020 M04/M09 A3017 RMK AO2 SLP227 T10441094
Loading
Personal Weather Stations






























Interactive Weather Map New forecast layout! Learn more

10-Day Weather Forecast

Advertisements
Track Severe Weather on mobile